createdAt,value
2019-05-30T00:01:05.723Z,15.70
2019-05-30T00:03:35.095Z,15.70
2019-05-30T00:06:04.735Z,15.70
2019-05-30T00:08:34.227Z,15.70
2019-05-30T00:11:04.669Z,15.70
2019-05-30T00:13:34.447Z,15.70
2019-05-30T00:16:05.501Z,15.60
2019-05-30T00:18:34.913Z,15.60
2019-05-30T00:21:05.040Z,15.60
2019-05-30T00:23:36.890Z,15.60
2019-05-30T00:26:07.485Z,15.60
2019-05-30T00:28:37.066Z,15.50
2019-05-30T00:31:06.686Z,15.60
2019-05-30T00:33:36.044Z,15.50
2019-05-30T00:36:05.978Z,15.50
2019-05-30T00:38:35.745Z,15.50
2019-05-30T00:41:06.217Z,15.60
2019-05-30T00:43:35.859Z,15.50
2019-05-30T00:46:06.272Z,15.60
2019-05-30T00:48:35.759Z,15.50
2019-05-30T00:51:06.640Z,15.50
2019-05-30T00:53:36.226Z,15.50
2019-05-30T00:56:06.762Z,15.50
2019-05-30T00:58:36.257Z,15.50
2019-05-30T01:01:07.004Z,15.50
2019-05-30T01:03:36.511Z,15.50
2019-05-30T01:06:07.145Z,15.50
2019-05-30T01:08:36.719Z,15.50
2019-05-30T01:11:07.404Z,15.50
2019-05-30T01:13:37.600Z,15.50
2019-05-30T01:16:07.380Z,15.50
2019-05-30T01:18:36.993Z,15.50
2019-05-30T01:21:07.404Z,15.60
2019-05-30T01:23:39.858Z,15.50
2019-05-30T01:26:09.264Z,15.50
2019-05-30T01:28:38.659Z,15.50
2019-05-30T01:31:11.348Z,15.50
2019-05-30T01:33:39.538Z,15.60
2019-05-30T01:36:08.915Z,15.50
2019-05-30T01:38:39.954Z,15.50
2019-05-30T01:41:09.339Z,15.40
2019-05-30T01:43:38.710Z,15.50
2019-05-30T01:46:08.394Z,15.50
2019-05-30T01:48:38.010Z,15.40
2019-05-30T01:51:08.654Z,15.50
2019-05-30T01:53:38.168Z,15.50
2019-05-30T01:56:08.848Z,15.40
2019-05-30T01:58:38.276Z,15.40
2019-05-30T02:01:22.358Z,15.40
2019-05-30T02:03:38.665Z,15.50
2019-05-30T02:06:09.287Z,15.40
2019-05-30T02:08:41.047Z,15.40
2019-05-30T02:11:10.672Z,15.40
2019-05-30T02:13:42.331Z,15.40
2019-05-30T02:16:11.850Z,15.50
2019-05-30T02:18:41.310Z,15.40
2019-05-30T02:21:10.872Z,15.40
2019-05-30T02:23:40.191Z,15.40
2019-05-30T02:26:10.509Z,15.40
2019-05-30T02:28:40.086Z,15.30
2019-05-30T02:31:11.665Z,15.30
2019-05-30T02:33:40.735Z,15.30
2019-05-30T02:36:12.519Z,15.30
2019-05-30T02:38:41.803Z,15.20
2019-05-30T02:41:12.554Z,15.30
2019-05-30T02:43:42.458Z,15.30
2019-05-30T02:46:12.581Z,15.30
2019-05-30T02:48:58.106Z,15.30
2019-05-30T02:51:13.898Z,15.40
2019-05-30T02:53:43.374Z,15.30
2019-05-30T02:56:12.897Z,15.40
2019-05-30T02:58:42.435Z,15.40
2019-05-30T03:01:14.214Z,15.40
2019-05-30T03:03:42.987Z,15.40
2019-05-30T03:06:13.936Z,15.40
2019-05-30T03:08:43.716Z,15.30
2019-05-30T03:11:15.418Z,15.30
2019-05-30T03:13:44.373Z,15.30
2019-05-30T03:16:13.928Z,15.30
2019-05-30T03:18:43.640Z,15.30
2019-05-30T03:21:15.445Z,15.30
2019-05-30T03:23:44.099Z,15.30
2019-05-30T03:26:16.028Z,15.30
2019-05-30T03:28:45.486Z,15.30
2019-05-30T03:31:26.606Z,15.30
2019-05-30T03:33:47.087Z,15.30
2019-05-30T03:36:28.479Z,15.40
2019-05-30T03:38:47.653Z,15.30
2019-05-30T03:41:17.187Z,15.30
2019-05-30T03:43:46.669Z,15.40
2019-05-30T03:46:21.040Z,15.40
2019-05-30T03:48:53.677Z,15.40
2019-05-30T03:51:24.290Z,15.40
2019-05-30T03:53:54.678Z,15.40
2019-05-30T03:56:29.883Z,15.40
2019-05-30T03:59:05.764Z,15.40
2019-05-30T04:01:43.401Z,15.40
2019-05-30T04:04:17.620Z,15.40
2019-05-30T04:06:51.275Z,15.40
2019-05-30T04:09:25.206Z,15.40
2019-05-30T04:12:16.955Z,15.50
2019-05-30T04:14:49.305Z,15.40
2019-05-30T04:17:20.034Z,15.40
2019-05-30T04:19:49.802Z,15.40
2019-05-30T04:22:19.627Z,15.40
2019-05-30T04:24:51.076Z,15.40
2019-05-30T04:27:20.894Z,15.40
2019-05-30T04:29:50.500Z,15.40
2019-05-30T04:32:19.992Z,15.40
2019-05-30T04:34:49.254Z,15.40
2019-05-30T04:37:19.080Z,15.40
2019-05-30T04:39:49.367Z,15.50
2019-05-30T04:42:20.621Z,15.50
2019-05-30T04:44:49.860Z,15.40
2019-05-30T04:47:20.815Z,15.50
2019-05-30T04:49:50.447Z,15.40
2019-05-30T04:52:23.953Z,15.40
2019-05-30T04:54:51.129Z,15.50
2019-05-30T04:57:25.718Z,15.50
2019-05-30T04:59:51.843Z,15.40
2019-05-30T05:02:23.251Z,15.50
2019-05-30T05:04:52.893Z,15.50
2019-05-30T05:07:23.226Z,15.50
2019-05-30T05:09:52.627Z,15.50
2019-05-30T05:12:22.428Z,15.50
2019-05-30T05:14:51.929Z,15.60
2019-05-30T05:17:22.949Z,15.50
2019-05-30T05:19:53.214Z,15.60
2019-05-30T05:22:23.345Z,15.50
2019-05-30T05:24:52.915Z,15.60
2019-05-30T05:27:22.789Z,15.60
2019-05-30T05:29:53.451Z,15.60
2019-05-30T05:32:22.886Z,15.60
2019-05-30T05:34:52.430Z,15.60
2019-05-30T05:37:23.290Z,15.60
2019-05-30T05:39:52.821Z,15.70
2019-05-30T05:42:22.686Z,15.70
2019-05-30T05:44:52.362Z,15.70
2019-05-30T05:47:22.799Z,15.60
2019-05-30T05:49:52.315Z,15.70
2019-05-30T05:52:22.735Z,15.70
2019-05-30T05:54:52.295Z,15.70
2019-05-30T05:57:22.840Z,15.80
2019-05-30T05:59:52.599Z,15.80
2019-05-30T06:02:23.129Z,15.80
2019-05-30T06:04:52.695Z,15.80
2019-05-30T06:07:22.467Z,15.80
2019-05-30T06:09:51.954Z,15.70
2019-05-30T06:12:21.755Z,15.80
2019-05-30T06:14:51.257Z,15.80
2019-05-30T06:17:21.155Z,15.80
2019-05-30T06:19:50.890Z,15.80
2019-05-30T06:22:21.514Z,15.90
2019-05-30T06:24:50.968Z,15.80
2019-05-30T06:27:20.373Z,15.80
2019-05-30T06:29:49.851Z,15.90
2019-05-30T06:32:20.830Z,15.90
2019-05-30T06:34:51.314Z,15.90
2019-05-30T06:37:21.079Z,16.00
2019-05-30T06:39:50.542Z,16.00
2019-05-30T06:42:19.948Z,16.00
2019-05-30T06:44:49.538Z,15.90
2019-05-30T06:47:20.127Z,16.00
2019-05-30T06:49:49.756Z,16.00
2019-05-30T06:52:19.176Z,16.00
2019-05-30T06:54:48.723Z,16.00
2019-05-30T06:57:18.266Z,16.00
2019-05-30T06:59:48.162Z,16.00
2019-05-30T07:02:18.522Z,16.00
2019-05-30T07:04:52.130Z,16.00
2019-05-30T07:07:20.366Z,16.10
2019-05-30T07:10:11.126Z,15.90
2019-05-30T07:12:40.601Z,15.90
2019-05-30T07:15:12.226Z,15.80
2019-05-30T07:17:41.838Z,15.80
2019-05-30T07:20:11.782Z,15.90
2019-05-30T07:22:41.452Z,15.80
2019-05-30T07:25:11.113Z,15.90
2019-05-30T07:27:40.529Z,15.90
2019-05-30T07:30:10.456Z,15.90
2019-05-30T07:32:40.440Z,15.90
2019-05-30T07:35:10.545Z,16.00
2019-05-30T07:37:40.011Z,16.00
2019-05-30T07:40:10.385Z,16.00
2019-05-30T07:42:39.779Z,16.00
2019-05-30T07:45:11.084Z,16.10
2019-05-30T07:47:40.521Z,16.10
2019-05-30T07:50:11.158Z,16.20
2019-05-30T07:52:40.795Z,16.30
2019-05-30T07:55:11.509Z,16.30
2019-05-30T07:57:41.649Z,16.40
2019-05-30T08:00:12.294Z,16.40
2019-05-30T08:02:41.806Z,16.50
2019-05-30T08:05:23.534Z,16.50
2019-05-30T08:07:43.470Z,16.50
2019-05-30T08:10:13.636Z,16.50
2019-05-30T08:12:43.034Z,16.60
2019-05-30T08:15:12.806Z,16.60
2019-05-30T08:17:44.389Z,16.70
2019-05-30T08:20:13.963Z,16.70
2019-05-30T08:22:45.112Z,16.60
2019-05-30T08:25:14.931Z,16.60
2019-05-30T08:27:44.412Z,16.60
2019-05-30T08:30:15.027Z,16.50
2019-05-30T08:32:44.507Z,16.50
2019-05-30T08:35:14.172Z,16.50
2019-05-30T08:37:43.884Z,16.50
2019-05-30T08:40:13.920Z,16.50
2019-05-30T08:42:43.346Z,16.40
2019-05-30T08:45:13.148Z,16.40
2019-05-30T08:47:42.549Z,16.40
2019-05-30T08:50:12.272Z,16.40
2019-05-30T08:52:42.159Z,16.50
2019-05-30T08:55:12.412Z,16.40
2019-05-30T08:57:43.235Z,16.40
2019-05-30T09:00:14.724Z,16.40
2019-05-30T09:02:45.112Z,16.40
2019-05-30T09:05:15.878Z,16.40
2019-05-30T09:07:46.380Z,16.40
2019-05-30T09:10:16.157Z,16.30
2019-05-30T09:12:49.367Z,16.40
2019-05-30T09:15:17.566Z,16.30
2019-05-30T09:17:48.795Z,16.40
2019-05-30T09:20:19.228Z,16.50
2019-05-30T09:22:48.618Z,16.50
2019-05-30T09:25:18.606Z,16.40
2019-05-30T09:27:48.429Z,16.50
2019-05-30T09:30:18.528Z,16.40
2019-05-30T09:32:48.923Z,16.40
2019-05-30T09:35:20.503Z,16.40
2019-05-30T09:37:50.291Z,16.30
2019-05-30T09:40:20.629Z,16.40
2019-05-30T09:42:50.508Z,16.40
2019-05-30T09:45:21.490Z,16.30
2019-05-30T09:47:51.355Z,16.40
2019-05-30T09:50:21.574Z,16.30
2019-05-30T09:52:52.951Z,16.30
2019-05-30T09:55:24.335Z,16.30
2019-05-30T09:57:53.969Z,16.30
2019-05-30T10:00:24.435Z,16.40
2019-05-30T10:02:53.979Z,16.40
2019-05-30T10:05:24.815Z,16.30
2019-05-30T10:07:54.725Z,16.30
2019-05-30T10:10:24.455Z,16.30
2019-05-30T10:12:54.179Z,16.40
2019-05-30T10:15:24.397Z,16.40
2019-05-30T10:17:59.270Z,16.40
2019-05-30T10:20:35.260Z,16.40
2019-05-30T10:23:05.037Z,16.40
2019-05-30T10:25:34.674Z,16.40
2019-05-30T10:28:04.298Z,16.40
2019-05-30T10:30:33.922Z,16.40
2019-05-30T10:33:04.019Z,16.40
2019-05-30T10:35:33.513Z,16.50
2019-05-30T10:38:03.013Z,16.50
2019-05-30T10:40:32.904Z,16.50
2019-05-30T10:43:02.388Z,16.60
2019-05-30T10:45:32.453Z,16.70
2019-05-30T10:48:02.301Z,16.70
2019-05-30T10:50:31.957Z,16.70
2019-05-30T10:53:01.394Z,16.70
2019-05-30T10:55:32.223Z,16.70
2019-05-30T10:58:03.825Z,16.70
2019-05-30T11:00:48.417Z,16.70
2019-05-30T11:03:21.121Z,16.70
2019-05-30T11:06:08.618Z,16.70
2019-05-30T11:08:40.237Z,16.70
2019-05-30T11:11:09.772Z,16.70
2019-05-30T11:13:39.460Z,16.70
2019-05-30T11:16:10.674Z,16.70
2019-05-30T11:18:40.120Z,16.70
2019-05-30T11:21:09.536Z,16.80
2019-05-30T11:23:39.102Z,16.80
2019-05-30T11:26:09.304Z,16.80
2019-05-30T11:28:38.741Z,16.80
2019-05-30T11:31:09.007Z,16.80
2019-05-30T11:33:38.530Z,16.70
2019-05-30T11:36:07.979Z,16.80
2019-05-30T11:38:37.518Z,16.80
2019-05-30T11:41:08.944Z,16.90
2019-05-30T11:43:38.623Z,16.80
2019-05-30T11:46:08.248Z,16.90
2019-05-30T11:48:38.119Z,16.90
2019-05-30T11:51:07.744Z,17.00
2019-05-30T11:53:37.739Z,17.00
2019-05-30T11:56:07.382Z,17.00
2019-05-30T11:58:37.112Z,17.00
2019-05-30T12:01:06.791Z,17.00
2019-05-30T12:03:36.504Z,17.00
2019-05-30T12:06:06.239Z,17.10
2019-05-30T12:08:35.750Z,17.00
2019-05-30T12:11:05.344Z,17.10
2019-05-30T12:13:34.940Z,17.10
2019-05-30T12:16:04.670Z,17.10
2019-05-30T12:18:34.343Z,17.10
2019-05-30T12:21:04.011Z,17.10
2019-05-30T12:23:33.521Z,17.10
2019-05-30T12:26:03.343Z,17.20
2019-05-30T12:28:34.612Z,17.20
2019-05-30T12:31:06.439Z,17.20
2019-05-30T12:33:35.512Z,17.20
2019-05-30T12:36:05.285Z,17.20
2019-05-30T12:38:34.906Z,17.20
2019-05-30T12:41:04.458Z,17.20
2019-05-30T12:43:33.894Z,17.20
2019-05-30T12:46:03.421Z,17.20
2019-05-30T12:48:32.892Z,17.30
2019-05-30T12:51:03.435Z,17.20
2019-05-30T12:53:32.926Z,17.30
2019-05-30T12:56:02.689Z,17.30
2019-05-30T12:58:32.107Z,17.40
2019-05-30T13:01:02.875Z,17.40
2019-05-30T13:03:32.455Z,17.40
2019-05-30T13:06:03.436Z,17.50
2019-05-30T13:08:33.111Z,17.50
2019-05-30T13:11:03.828Z,17.40
2019-05-30T13:13:33.365Z,17.40
2019-05-30T13:16:07.061Z,17.40
2019-05-30T13:18:34.460Z,17.40
2019-05-30T13:21:04.240Z,17.40
2019-05-30T13:23:33.789Z,17.40
2019-05-30T13:26:03.848Z,17.40
2019-05-30T13:28:33.763Z,17.40
2019-05-30T13:31:04.411Z,17.50
2019-05-30T13:33:38.004Z,17.50
2019-05-30T13:36:05.711Z,17.60
2019-05-30T13:38:35.211Z,17.60
2019-05-30T13:41:05.636Z,17.60
2019-05-30T13:43:35.202Z,17.60
2019-05-30T13:46:04.893Z,17.60
2019-05-30T13:48:34.475Z,17.60
2019-05-30T13:51:04.850Z,17.60
2019-05-30T13:53:34.447Z,17.60
2019-05-30T13:56:05.479Z,17.60
2019-05-30T13:58:35.064Z,17.50
2019-05-30T14:01:09.338Z,17.60
2019-05-30T14:03:35.545Z,17.60
2019-05-30T14:06:06.526Z,17.70
2019-05-30T14:08:41.608Z,17.70
2019-05-30T14:11:08.624Z,17.70
2019-05-30T14:13:38.968Z,17.70
2019-05-30T14:16:09.017Z,17.70
2019-05-30T14:18:38.512Z,17.70
2019-05-30T14:21:09.651Z,17.80
2019-05-30T14:23:39.449Z,17.80
2019-05-30T14:26:09.493Z,17.80
2019-05-30T14:28:39.048Z,17.80
2019-05-30T14:31:08.947Z,17.80
2019-05-30T14:33:38.674Z,17.80
2019-05-30T14:36:11.320Z,17.80
2019-05-30T14:38:39.631Z,17.70
2019-05-30T14:41:09.207Z,17.80
2019-05-30T14:43:38.845Z,17.80
2019-05-30T14:46:08.364Z,17.80
2019-05-30T14:48:37.930Z,17.80
2019-05-30T14:51:08.640Z,17.90
2019-05-30T14:53:38.149Z,17.90
2019-05-30T14:56:09.129Z,17.90
2019-05-30T14:58:38.690Z,18.00
2019-05-30T15:01:09.282Z,18.00
2019-05-30T15:03:38.805Z,18.00
2019-05-30T15:06:11.034Z,18.00
2019-05-30T15:08:39.798Z,17.90
2019-05-30T15:11:09.505Z,17.90
2019-05-30T15:13:41.216Z,17.90
2019-05-30T15:16:13.317Z,17.80
2019-05-30T15:18:43.120Z,17.90
2019-05-30T15:21:12.612Z,17.90
2019-05-30T15:23:42.577Z,17.90
2019-05-30T15:26:12.172Z,17.90
2019-05-30T15:28:41.682Z,17.90
2019-05-30T15:31:12.403Z,18.00
2019-05-30T15:33:42.040Z,18.00
2019-05-30T15:36:12.475Z,18.00
2019-05-30T15:38:42.721Z,18.00
2019-05-30T15:41:13.166Z,18.10
2019-05-30T15:43:42.808Z,18.10
2019-05-30T15:46:12.239Z,18.10
2019-05-30T15:48:42.265Z,18.20
2019-05-30T15:51:12.501Z,18.20
2019-05-30T15:53:42.292Z,18.20
2019-05-30T15:56:13.160Z,18.30
2019-05-30T15:58:42.997Z,18.30
2019-05-30T16:01:12.416Z,18.30
2019-05-30T16:03:41.919Z,18.30
2019-05-30T16:06:12.917Z,18.30
2019-05-30T16:08:45.489Z,18.30
2019-05-30T16:11:14.892Z,18.30
2019-05-30T16:13:44.609Z,18.30
2019-05-30T16:16:15.324Z,18.30
2019-05-30T16:18:45.284Z,18.30
2019-05-30T16:21:16.013Z,18.40
2019-05-30T16:23:46.214Z,18.30
2019-05-30T16:26:16.031Z,18.30
2019-05-30T16:28:46.790Z,18.30
2019-05-30T16:31:16.352Z,18.40
2019-05-30T16:33:45.892Z,18.40
2019-05-30T16:36:16.084Z,18.40
2019-05-30T16:38:45.730Z,18.50
2019-05-30T16:41:18.162Z,18.60
2019-05-30T16:43:47.995Z,18.70
2019-05-30T16:46:18.307Z,18.80
2019-05-30T16:48:47.870Z,19.00
2019-05-30T16:51:17.267Z,19.40
2019-05-30T16:53:47.130Z,19.60
2019-05-30T16:56:17.329Z,19.80
2019-05-30T16:58:47.056Z,19.90
2019-05-30T17:01:17.707Z,20.00
2019-05-30T17:03:47.686Z,20.10
2019-05-30T17:06:18.039Z,20.30
2019-05-30T17:08:47.640Z,20.20
2019-05-30T17:11:17.346Z,20.10
2019-05-30T17:13:47.125Z,19.90
2019-05-30T17:16:17.803Z,19.70
2019-05-30T17:18:47.554Z,19.60
2019-05-30T17:21:17.063Z,19.60
2019-05-30T17:23:46.677Z,19.80
2019-05-30T17:26:17.044Z,20.00
2019-05-30T17:28:46.531Z,20.30
2019-05-30T17:31:16.062Z,20.40
2019-05-30T17:33:45.662Z,20.50
2019-05-30T17:36:15.189Z,20.70
2019-05-30T17:38:44.936Z,20.80
2019-05-30T17:41:14.640Z,20.70
2019-05-30T17:43:44.534Z,20.70
2019-05-30T17:46:14.737Z,20.80
2019-05-30T17:48:44.514Z,20.80
2019-05-30T17:51:14.133Z,20.90
2019-05-30T17:53:44.172Z,20.90
2019-05-30T17:56:13.737Z,20.80
2019-05-30T17:58:43.477Z,20.60
2019-05-30T18:01:12.987Z,20.50
2019-05-30T18:03:42.574Z,20.30
2019-05-30T18:06:12.126Z,20.20
2019-05-30T18:08:41.707Z,20.10
2019-05-30T18:11:12.448Z,20.10
2019-05-30T18:13:43.609Z,20.30
2019-05-30T18:16:13.261Z,20.60
2019-05-30T18:18:42.805Z,20.70
2019-05-30T18:21:12.583Z,20.80
2019-05-30T18:23:44.786Z,21.00
2019-05-30T18:26:13.479Z,21.00
2019-05-30T18:28:43.148Z,20.80
2019-05-30T18:31:12.824Z,20.60
2019-05-30T18:33:42.546Z,20.40
2019-05-30T18:36:12.186Z,20.30
2019-05-30T18:38:41.800Z,20.10
2019-05-30T18:41:15.690Z,20.00
2019-05-30T18:43:42.726Z,19.90
2019-05-30T18:46:12.418Z,19.80
2019-05-30T18:48:41.970Z,19.70
2019-05-30T18:51:11.683Z,19.60
2019-05-30T18:53:41.795Z,19.60
2019-05-30T18:56:11.515Z,19.50
2019-05-30T18:58:41.176Z,19.40
2019-05-30T19:01:10.616Z,19.40
2019-05-30T19:03:40.061Z,19.40
2019-05-30T19:06:09.700Z,19.40
2019-05-30T19:08:40.692Z,19.30
2019-05-30T19:11:26.347Z,19.30
2019-05-30T19:13:41.860Z,19.30
2019-05-30T19:16:11.368Z,19.30
2019-05-30T19:18:43.105Z,19.20
2019-05-30T19:21:13.573Z,19.20
2019-05-30T19:23:43.244Z,19.20
2019-05-30T19:26:13.243Z,19.20
2019-05-30T19:28:42.889Z,19.10
2019-05-30T19:31:12.530Z,19.10
2019-05-30T19:33:42.071Z,19.10
2019-05-30T19:36:11.506Z,19.10
2019-05-30T19:38:41.349Z,19.10
2019-05-30T19:41:11.273Z,19.10
2019-05-30T19:43:40.949Z,19.10
2019-05-30T19:46:13.221Z,19.00
2019-05-30T19:48:41.511Z,19.00
2019-05-30T19:51:11.027Z,19.00
2019-05-30T19:53:40.836Z,19.00
2019-05-30T19:56:10.385Z,19.00
2019-05-30T19:58:40.655Z,19.00
2019-05-30T20:01:10.279Z,18.90
2019-05-30T20:06:11.052Z,19.00
2019-05-30T20:06:13.630Z,19.00
2019-05-30T20:08:54.348Z,18.90
2019-05-30T20:11:11.884Z,19.00
2019-05-30T20:13:41.510Z,18.90
2019-05-30T20:16:11.119Z,19.00
2019-05-30T20:18:41.731Z,19.00
2019-05-30T20:21:11.519Z,19.00
2019-05-30T20:23:53.770Z,19.00
2019-05-30T20:26:15.029Z,19.00
2019-05-30T20:28:45.126Z,19.00
2019-05-30T20:31:16.370Z,19.00
2019-05-30T20:33:46.850Z,19.00
2019-05-30T20:36:16.681Z,19.00
2019-05-30T20:38:46.914Z,18.90
2019-05-30T20:41:16.776Z,18.90
2019-05-30T20:43:47.419Z,18.90
2019-05-30T20:46:23.216Z,18.90
2019-05-30T20:48:48.861Z,18.90
2019-05-30T20:51:21.386Z,18.90
2019-05-30T20:53:51.114Z,18.90
2019-05-30T20:56:20.689Z,18.90
2019-05-30T20:58:50.227Z,18.90
2019-05-30T21:01:19.856Z,18.80
2019-05-30T21:03:49.825Z,18.80
2019-05-30T21:06:19.910Z,18.80
2019-05-30T21:08:51.381Z,18.80
2019-05-30T21:11:26.496Z,18.70
2019-05-30T21:13:56.015Z,18.70
2019-05-30T21:16:26.895Z,18.70
2019-05-30T21:18:57.123Z,18.70
2019-05-30T21:21:26.643Z,18.70
2019-05-30T21:23:56.481Z,18.60
2019-05-30T21:26:26.324Z,18.60
2019-05-30T21:28:55.680Z,18.60
2019-05-30T21:31:25.201Z,18.60
2019-05-30T21:33:54.731Z,18.60
2019-05-30T21:36:26.662Z,18.60
2019-05-30T21:38:55.482Z,18.60
2019-05-30T21:41:24.982Z,18.60
2019-05-30T21:43:54.407Z,18.60
2019-05-30T21:46:23.813Z,18.60
2019-05-30T21:48:53.412Z,18.60
2019-05-30T21:51:22.826Z,18.50
2019-05-30T21:53:52.418Z,18.60
2019-05-30T21:56:21.806Z,18.60
2019-05-30T21:58:51.395Z,18.50
2019-05-30T22:01:29.137Z,18.60
2019-05-30T22:03:59.164Z,18.60
2019-05-30T22:06:28.854Z,18.60
2019-05-30T22:09:02.786Z,18.60
2019-05-30T22:11:29.771Z,18.50
2019-05-30T22:13:59.123Z,18.60
2019-05-30T22:16:28.700Z,18.60
2019-05-30T22:18:58.224Z,18.60
2019-05-30T22:21:27.587Z,18.50
2019-05-30T22:23:57.252Z,18.50
2019-05-30T22:26:27.612Z,18.50
2019-05-30T22:28:57.030Z,18.50
2019-05-30T22:31:26.734Z,18.50
2019-05-30T22:33:58.004Z,18.50
2019-05-30T22:36:27.383Z,18.50
2019-05-30T22:38:56.846Z,18.50
2019-05-30T22:41:26.194Z,18.50
2019-05-30T22:43:55.670Z,18.50
2019-05-30T22:46:25.624Z,18.50
2019-05-30T22:48:55.180Z,18.40
2019-05-30T22:51:27.537Z,18.50
2019-05-30T22:53:55.744Z,18.40
2019-05-30T22:56:26.934Z,18.40
2019-05-30T22:58:56.288Z,18.40
2019-05-30T23:01:25.656Z,18.40
2019-05-30T23:03:57.552Z,18.40
2019-05-30T23:06:27.180Z,18.40
2019-05-30T23:08:57.010Z,18.50
2019-05-30T23:11:28.657Z,18.50
2019-05-30T23:13:58.049Z,18.40
2019-05-30T23:16:27.613Z,18.40
2019-05-30T23:18:57.841Z,18.40
2019-05-30T23:21:27.226Z,18.40
2019-05-30T23:23:57.283Z,18.40
2019-05-30T23:26:26.828Z,18.40
2019-05-30T23:28:56.283Z,18.40
2019-05-30T23:31:25.875Z,18.30
2019-05-30T23:33:56.387Z,18.40
2019-05-30T23:36:26.155Z,18.40
2019-05-30T23:38:56.801Z,18.30
2019-05-30T23:41:28.029Z,18.30
2019-05-30T23:44:08.863Z,18.30
2019-05-30T23:46:28.768Z,18.30
2019-05-30T23:48:58.270Z,18.30
2019-05-30T23:51:27.682Z,18.30
2019-05-30T23:53:58.277Z,18.30
2019-05-30T23:56:27.869Z,18.20
2019-05-30T23:58:57.254Z,18.20
